createdAt,value
2022-12-06T00:01:19.208Z,55.42
2022-12-06T00:03:47.996Z,54.63
2022-12-06T00:06:18.200Z,55.05
2022-12-06T00:08:46.125Z,55.46
2022-12-06T00:11:19.065Z,55.65
2022-12-06T00:13:46.753Z,55.01
2022-12-06T00:16:16.866Z,55.48
2022-12-06T00:18:46.172Z,55.02
2022-12-06T00:21:16.392Z,54.92
2022-12-06T00:23:46.603Z,55.02
2022-12-06T00:26:14.813Z,54.68
2022-12-06T00:28:42.424Z,54.17
2022-12-06T00:31:13.957Z,54.89
2022-12-06T00:33:41.338Z,56.25
2022-12-06T00:36:15.028Z,55.85
2022-12-06T00:38:43.748Z,55.93
2022-12-06T00:41:16.539Z,55.71
2022-12-06T00:43:44.636Z,56.01
2022-12-06T00:46:15.733Z,55.10
2022-12-06T00:48:43.469Z,55.69
2022-12-06T00:51:10.755Z,55.21
2022-12-06T00:53:37.954Z,55.37
2022-12-06T00:56:05.297Z,55.15
2022-12-06T00:58:34.207Z,55.04
2022-12-06T01:01:13.101Z,55.20
2022-12-06T01:03:40.885Z,55.13
2022-12-06T01:06:11.165Z,54.96
2022-12-06T01:08:38.927Z,55.19
2022-12-06T01:11:06.641Z,54.69
2022-12-06T01:13:34.470Z,55.47
2022-12-06T01:16:16.344Z,55.36
2022-12-06T01:18:44.915Z,55.14
2022-12-06T01:21:17.596Z,54.96
2022-12-06T01:23:46.057Z,54.91
2022-12-06T01:26:19.771Z,55.34
2022-12-06T01:28:47.400Z,55.20
2022-12-06T01:31:15.325Z,54.67
2022-12-06T01:33:43.578Z,54.10
2022-12-06T01:36:22.186Z,55.78
2022-12-06T01:38:57.777Z,55.46
2022-12-06T01:41:27.593Z,55.55
2022-12-06T01:43:55.864Z,55.37
2022-12-06T01:46:41.405Z,54.57
2022-12-06T01:49:21.132Z,55.31
2022-12-06T01:52:01.296Z,55.48
2022-12-06T01:54:29.854Z,55.10
2022-12-06T01:56:58.204Z,54.79
2022-12-06T01:59:26.538Z,55.20
2022-12-06T02:01:54.684Z,54.90
2022-12-06T02:04:22.387Z,55.32
2022-12-06T02:06:52.337Z,55.03
2022-12-06T02:09:20.442Z,54.58
2022-12-06T02:11:47.600Z,54.85
2022-12-06T02:14:19.938Z,54.49
2022-12-06T02:16:53.060Z,54.67
2022-12-06T02:19:22.820Z,54.52
2022-12-06T02:21:53.570Z,55.05
2022-12-06T02:24:46.854Z,54.66
2022-12-06T02:27:56.820Z,54.70
2022-12-06T02:30:47.564Z,54.28
2022-12-06T02:33:49.184Z,53.90
2022-12-06T02:36:38.838Z,54.51
2022-12-06T02:39:11.654Z,54.36
2022-12-06T02:41:42.979Z,54.35
2022-12-06T02:44:19.837Z,54.39
2022-12-06T02:46:49.303Z,54.97
2022-12-06T02:49:18.113Z,55.23
2022-12-06T02:51:47.724Z,54.84
2022-12-06T02:54:16.016Z,54.32
2022-12-06T02:56:43.007Z,55.09
2022-12-06T02:59:10.826Z,54.68
2022-12-06T03:01:44.366Z,54.95
2022-12-06T03:04:47.715Z,55.29
2022-12-06T03:07:20.871Z,55.68
2022-12-06T03:10:09.901Z,55.31
2022-12-06T03:12:48.407Z,55.39
2022-12-06T03:15:26.302Z,55.70
2022-12-06T03:18:01.152Z,55.12
2022-12-06T03:20:43.022Z,55.09
2022-12-06T03:23:15.251Z,55.87
2022-12-06T03:25:45.204Z,55.12
2022-12-06T03:28:14.881Z,55.24
2022-12-06T03:30:46.018Z,54.96
2022-12-06T03:33:14.731Z,54.84
2022-12-06T03:35:43.625Z,54.69
2022-12-06T03:38:17.377Z,55.73
2022-12-06T03:40:48.368Z,55.17
2022-12-06T03:43:15.411Z,54.83
2022-12-06T03:45:49.171Z,54.34
2022-12-06T03:48:26.442Z,54.07
2022-12-06T03:51:04.072Z,54.59
2022-12-06T03:53:32.471Z,54.41
2022-12-06T03:56:00.016Z,54.19
2022-12-06T03:58:27.064Z,54.56
2022-12-06T04:00:54.078Z,54.16
2022-12-06T04:03:21.143Z,54.12
2022-12-06T04:05:48.196Z,54.40
2022-12-06T04:08:15.486Z,54.53
2022-12-06T04:10:42.479Z,54.39
2022-12-06T04:13:09.494Z,54.13
2022-12-06T04:15:38.261Z,54.36
2022-12-06T04:18:14.191Z,53.95
2022-12-06T04:21:04.140Z,54.68
2022-12-06T04:23:34.382Z,54.79
2022-12-06T04:26:01.680Z,54.17
2022-12-06T04:28:47.243Z,54.59
2022-12-06T04:31:32.853Z,54.58
2022-12-06T04:34:18.365Z,54.62
2022-12-06T04:37:04.545Z,54.94
2022-12-06T04:39:32.532Z,54.58
2022-12-06T04:42:18.181Z,53.94
2022-12-06T04:44:45.284Z,53.93
2022-12-06T04:47:12.392Z,54.44
2022-12-06T04:49:41.556Z,54.02
2022-12-06T04:52:09.587Z,54.30
2022-12-06T04:54:37.542Z,54.06
2022-12-06T04:57:11.052Z,54.65
2022-12-06T04:59:40.516Z,54.25
2022-12-06T05:02:10.196Z,54.84
2022-12-06T05:04:37.302Z,54.14
2022-12-06T05:07:06.740Z,54.11
2022-12-06T05:09:33.724Z,54.45
2022-12-06T05:12:00.819Z,54.07
2022-12-06T05:14:27.869Z,54.21
2022-12-06T05:16:54.919Z,54.32
2022-12-06T05:19:21.968Z,53.92
2022-12-06T05:21:48.978Z,54.07
2022-12-06T05:24:16.311Z,54.08
2022-12-06T05:26:43.572Z,54.08
2022-12-06T05:29:10.577Z,54.51
2022-12-06T05:31:37.695Z,53.90
2022-12-06T05:34:04.723Z,54.43
2022-12-06T05:36:31.716Z,53.83
2022-12-06T05:38:59.212Z,54.19
2022-12-06T05:41:26.263Z,53.45
2022-12-06T05:43:53.311Z,54.34
2022-12-06T05:46:20.429Z,53.88
2022-12-06T05:48:47.607Z,54.25
2022-12-06T05:51:14.731Z,53.76
2022-12-06T05:53:41.770Z,53.55
2022-12-06T05:56:11.915Z,54.28
2022-12-06T05:58:39.736Z,53.43
2022-12-06T06:01:08.368Z,53.00
2022-12-06T06:03:35.873Z,53.47
2022-12-06T06:06:04.452Z,53.48
2022-12-06T06:08:31.871Z,53.08
2022-12-06T06:10:59.422Z,53.53
2022-12-06T06:13:26.549Z,52.95
2022-12-06T06:15:53.860Z,53.45
2022-12-06T06:18:20.888Z,53.32
2022-12-06T06:20:49.736Z,53.63
2022-12-06T06:23:16.800Z,52.94
2022-12-06T06:25:43.925Z,53.19
2022-12-06T06:28:11.135Z,53.17
2022-12-06T06:30:38.185Z,53.56
2022-12-06T06:33:05.296Z,53.15
2022-12-06T06:35:32.422Z,53.03
2022-12-06T06:37:59.586Z,52.65
2022-12-06T06:40:27.834Z,52.32
2022-12-06T06:42:55.404Z,52.48
2022-12-06T06:45:28.370Z,52.44
2022-12-06T06:47:56.036Z,51.67
2022-12-06T06:50:23.039Z,52.32
2022-12-06T06:52:51.072Z,52.55
2022-12-06T06:55:20.285Z,52.52
2022-12-06T06:57:47.752Z,51.45
2022-12-06T07:00:15.334Z,51.94
2022-12-06T07:02:42.423Z,51.58
2022-12-06T07:05:09.651Z,51.38
2022-12-06T07:07:36.665Z,51.04
2022-12-06T07:10:04.360Z,51.32
2022-12-06T07:12:31.672Z,52.17
2022-12-06T07:14:58.682Z,51.46
2022-12-06T07:17:25.690Z,50.77
2022-12-06T07:19:52.689Z,51.23
2022-12-06T07:22:19.677Z,51.14
2022-12-06T07:24:52.085Z,51.01
2022-12-06T07:27:19.487Z,50.22
2022-12-06T07:29:46.460Z,50.70
2022-12-06T07:32:13.444Z,50.69
2022-12-06T07:34:41.562Z,49.72
2022-12-06T07:37:08.600Z,49.95
2022-12-06T07:39:36.369Z,50.09
2022-12-06T07:42:21.880Z,50.36
2022-12-06T07:45:02.264Z,50.80
2022-12-06T07:47:42.774Z,50.44
2022-12-06T07:50:18.783Z,50.45
2022-12-06T07:52:50.091Z,49.04
2022-12-06T07:55:18.179Z,50.38
2022-12-06T07:57:45.588Z,50.69
2022-12-06T08:00:17.204Z,50.78
2022-12-06T08:02:44.638Z,51.00
2022-12-06T08:05:12.505Z,50.90
2022-12-06T08:07:39.705Z,50.48
2022-12-06T08:10:08.228Z,50.89
2022-12-06T08:12:35.271Z,51.37
2022-12-06T08:15:02.307Z,51.58
2022-12-06T08:17:31.239Z,51.83
2022-12-06T08:19:58.521Z,51.65
2022-12-06T08:22:25.800Z,50.71
2022-12-06T08:24:52.766Z,50.76
2022-12-06T08:27:19.769Z,49.18
2022-12-06T08:29:46.735Z,49.97
2022-12-06T08:32:13.734Z,49.63
2022-12-06T08:34:40.776Z,49.86
2022-12-06T08:37:08.005Z,49.79
2022-12-06T08:39:35.188Z,49.52
2022-12-06T08:42:03.733Z,49.29
2022-12-06T08:44:32.437Z,50.41
2022-12-06T08:47:02.374Z,50.29
2022-12-06T08:49:31.135Z,49.77
2022-12-06T08:51:59.482Z,49.13
2022-12-06T08:54:26.914Z,49.03
2022-12-06T08:56:54.086Z,48.93
2022-12-06T08:59:21.308Z,48.68
2022-12-06T09:01:48.399Z,49.30
2022-12-06T09:04:15.857Z,49.43
2022-12-06T09:06:45.256Z,49.65
2022-12-06T09:09:14.316Z,49.89
2022-12-06T09:11:42.383Z,49.88
2022-12-06T09:14:17.846Z,49.17
2022-12-06T09:16:48.474Z,48.92
2022-12-06T09:19:18.046Z,48.48
2022-12-06T09:21:46.529Z,48.82
2022-12-06T09:24:16.108Z,48.96
2022-12-06T09:26:43.576Z,48.80
2022-12-06T09:29:11.009Z,48.63
2022-12-06T09:31:40.441Z,48.66
2022-12-06T09:34:09.405Z,49.03
2022-12-06T09:36:43.713Z,49.25
2022-12-06T09:39:13.032Z,49.18
2022-12-06T09:41:48.991Z,49.33
2022-12-06T09:44:24.874Z,48.38
2022-12-06T09:47:13.212Z,48.31
2022-12-06T09:50:05.482Z,48.58
2022-12-06T09:52:56.219Z,47.99
2022-12-06T09:55:30.505Z,48.63
2022-12-06T09:58:15.707Z,47.93
2022-12-06T10:00:49.479Z,48.91
2022-12-06T10:03:26.460Z,48.17
2022-12-06T10:06:01.189Z,47.53
2022-12-06T10:09:08.916Z,47.14
2022-12-06T10:12:11.368Z,46.84
2022-12-06T10:14:47.250Z,47.06
2022-12-06T10:17:24.256Z,47.67
2022-12-06T10:20:28.288Z,47.14
2022-12-06T10:23:22.705Z,46.76
2022-12-06T10:25:58.291Z,47.27
2022-12-06T10:28:51.418Z,47.07
2022-12-06T10:31:21.363Z,47.16
2022-12-06T10:33:55.270Z,46.55
2022-12-06T10:36:52.916Z,46.60
2022-12-06T10:40:03.199Z,46.99
2022-12-06T10:42:35.087Z,46.80
2022-12-06T10:45:35.263Z,46.97
2022-12-06T10:48:09.252Z,46.95
2022-12-06T10:50:39.615Z,47.08
2022-12-06T10:53:18.830Z,45.85
2022-12-06T10:56:00.977Z,46.20
2022-12-06T10:58:39.147Z,45.92
2022-12-06T11:01:19.513Z,47.43
2022-12-06T11:04:11.358Z,46.55
2022-12-06T11:06:55.763Z,46.78
2022-12-06T11:09:43.356Z,46.80
2022-12-06T11:12:36.326Z,46.96
2022-12-06T11:15:09.480Z,46.95
2022-12-06T11:17:41.915Z,46.51
2022-12-06T11:20:34.261Z,46.54
2022-12-06T11:23:11.609Z,46.47
2022-12-06T11:26:21.060Z,46.21
2022-12-06T11:29:08.364Z,46.06
2022-12-06T11:31:40.950Z,47.06
2022-12-06T11:34:18.943Z,46.78
2022-12-06T11:36:49.441Z,46.23
2022-12-06T11:39:16.985Z,46.39
2022-12-06T11:41:49.267Z,46.21
2022-12-06T11:44:25.708Z,46.79
2022-12-06T11:47:02.597Z,46.34
2022-12-06T11:49:36.924Z,46.87
2022-12-06T11:52:08.983Z,46.66
2022-12-06T11:54:44.509Z,46.56
2022-12-06T11:57:22.615Z,46.61
2022-12-06T12:00:16.531Z,47.29
2022-12-06T12:02:46.574Z,47.27
2022-12-06T12:05:25.647Z,46.70
2022-12-06T12:07:56.911Z,47.13
2022-12-06T12:10:42.912Z,47.46
2022-12-06T12:13:31.044Z,48.02
2022-12-06T12:16:01.917Z,47.69
2022-12-06T12:18:34.503Z,48.21
2022-12-06T12:21:05.082Z,47.72
2022-12-06T12:23:33.703Z,48.00
2022-12-06T12:26:08.176Z,48.45
2022-12-06T12:28:35.731Z,47.76
2022-12-06T12:31:19.681Z,48.00
2022-12-06T12:33:47.782Z,48.48
2022-12-06T12:36:15.013Z,48.57
2022-12-06T12:38:55.454Z,48.84
2022-12-06T12:41:39.341Z,49.15
2022-12-06T12:44:38.684Z,49.03
2022-12-06T12:47:20.374Z,49.18
2022-12-06T12:50:13.588Z,49.92
2022-12-06T12:52:41.996Z,49.65
2022-12-06T12:55:29.726Z,49.42
2022-12-06T12:57:59.415Z,49.95
2022-12-06T13:00:37.746Z,49.40
2022-12-06T13:03:35.034Z,49.86
2022-12-06T13:06:01.601Z,50.08
2022-12-06T13:08:38.105Z,50.52
2022-12-06T13:11:06.366Z,50.59
2022-12-06T13:13:49.951Z,50.48
2022-12-06T13:16:25.198Z,50.69
2022-12-06T13:18:56.151Z,50.80
2022-12-06T13:21:29.668Z,50.93
2022-12-06T13:24:08.168Z,50.84
2022-12-06T13:26:58.468Z,51.14
2022-12-06T13:29:31.304Z,50.97
2022-12-06T13:32:04.028Z,50.86
2022-12-06T13:34:47.896Z,51.52
2022-12-06T13:37:34.488Z,51.50
2022-12-06T13:40:04.899Z,51.61
2022-12-06T13:42:37.961Z,51.57
2022-12-06T13:45:47.179Z,51.54
2022-12-06T13:48:26.898Z,50.58
2022-12-06T13:50:57.640Z,50.85
2022-12-06T13:53:29.725Z,50.64
2022-12-06T13:56:18.140Z,50.97
2022-12-06T13:58:52.350Z,50.03
2022-12-06T14:01:44.353Z,50.50
2022-12-06T14:06:55.294Z,50.26
2022-12-06T14:09:23.929Z,50.53
2022-12-06T14:11:53.170Z,50.87
2022-12-06T14:14:25.447Z,50.21
2022-12-06T14:17:02.289Z,50.88
2022-12-06T14:19:29.445Z,51.03
2022-12-06T14:22:00.960Z,50.79
2022-12-06T14:24:37.715Z,50.91
2022-12-06T14:27:20.632Z,50.64
2022-12-06T14:30:24.890Z,50.36
2022-12-06T14:32:55.413Z,51.32
2022-12-06T14:35:31.028Z,51.38
2022-12-06T14:38:01.939Z,51.03
2022-12-06T14:40:58.089Z,50.55
2022-12-06T14:43:27.738Z,51.17
2022-12-06T14:45:55.723Z,51.11
2022-12-06T14:48:23.328Z,50.46
2022-12-06T14:50:52.739Z,50.16
2022-12-06T14:53:35.499Z,50.95
2022-12-06T14:56:19.774Z,50.95
2022-12-06T14:58:47.056Z,50.80
2022-12-06T15:01:19.135Z,50.92
2022-12-06T15:04:04.793Z,50.73
2022-12-06T15:06:33.998Z,50.46
2022-12-06T15:09:01.025Z,51.12
2022-12-06T15:11:58.742Z,50.80
2022-12-06T15:14:28.630Z,51.04
2022-12-06T15:17:16.300Z,50.89
2022-12-06T15:19:52.245Z,50.91
2022-12-06T15:22:28.203Z,50.55
2022-12-06T15:24:58.047Z,50.65
2022-12-06T15:27:28.596Z,50.45
2022-12-06T15:29:55.625Z,50.75
2022-12-06T15:32:25.113Z,50.58
2022-12-06T15:34:52.096Z,50.67
2022-12-06T15:40:07.080Z,50.27
2022-12-06T15:42:34.120Z,49.77
2022-12-06T15:45:01.473Z,50.10
2022-12-06T15:47:28.570Z,50.06
2022-12-06T15:49:58.325Z,49.54
2022-12-06T15:52:26.859Z,50.49
2022-12-06T15:54:53.940Z,50.36
2022-12-06T15:57:20.989Z,49.23
2022-12-06T15:59:48.085Z,49.37
2022-12-06T16:02:17.539Z,49.43
2022-12-06T16:04:45.856Z,49.37
2022-12-06T16:07:18.883Z,49.05
2022-12-06T16:09:48.251Z,49.80
2022-12-06T16:12:15.279Z,49.44
2022-12-06T16:14:42.521Z,49.73
2022-12-06T16:17:09.602Z,49.35
2022-12-06T16:19:55.238Z,49.36
2022-12-06T16:22:42.264Z,48.46
2022-12-06T16:25:09.542Z,48.47
2022-12-06T16:27:36.535Z,48.89
2022-12-06T16:30:06.036Z,48.27
2022-12-06T16:32:33.352Z,48.66
2022-12-06T16:35:00.770Z,48.69
2022-12-06T16:37:28.073Z,48.69
2022-12-06T16:39:55.111Z,48.66
2022-12-06T16:42:22.235Z,48.60
2022-12-06T16:44:52.184Z,47.70
2022-12-06T16:49:48.422Z,47.74
2022-12-06T16:52:16.594Z,47.98
2022-12-06T16:54:44.149Z,47.11
2022-12-06T16:57:11.777Z,47.22
2022-12-06T16:59:38.765Z,47.89
2022-12-06T17:02:24.245Z,47.10
2022-12-06T17:04:51.238Z,47.83
2022-12-06T17:07:18.897Z,47.33
2022-12-06T17:09:46.973Z,47.06
2022-12-06T17:12:15.393Z,47.28
2022-12-06T17:14:42.828Z,47.52
2022-12-06T17:17:21.697Z,47.81
2022-12-06T17:19:49.578Z,48.12
2022-12-06T17:22:18.720Z,48.04
2022-12-06T17:24:45.995Z,47.72
2022-12-06T17:27:31.462Z,48.21
2022-12-06T17:29:58.691Z,49.86
2022-12-06T17:32:27.459Z,48.81
2022-12-06T17:34:54.490Z,47.75
2022-12-06T17:37:21.515Z,47.66
2022-12-06T17:39:48.752Z,47.48
2022-12-06T17:42:34.588Z,47.86
2022-12-06T17:45:02.888Z,48.15
2022-12-06T17:47:31.062Z,47.46
2022-12-06T17:49:58.255Z,47.95
2022-12-06T17:52:25.518Z,47.53
2022-12-06T17:54:52.502Z,47.88
2022-12-06T17:57:19.645Z,47.19
2022-12-06T17:59:48.182Z,46.79
2022-12-06T18:02:18.929Z,47.66
2022-12-06T18:04:48.025Z,47.46
2022-12-06T18:07:16.218Z,47.51
2022-12-06T18:09:43.809Z,47.14
2022-12-06T18:12:12.111Z,47.79
2022-12-06T18:14:39.165Z,48.16
2022-12-06T18:17:06.335Z,46.98
2022-12-06T18:19:33.829Z,47.01
2022-12-06T18:22:02.396Z,47.44
2022-12-06T18:24:35.293Z,47.54
2022-12-06T18:27:03.064Z,47.56
2022-12-06T18:29:30.419Z,47.70
2022-12-06T18:31:57.556Z,47.74
2022-12-06T18:34:24.814Z,47.48
2022-12-06T18:36:52.024Z,47.95
2022-12-06T18:39:24.699Z,47.60
2022-12-06T18:41:53.333Z,48.04
2022-12-06T18:44:20.729Z,47.99
2022-12-06T18:46:47.963Z,47.53
2022-12-06T18:49:15.388Z,48.11
2022-12-06T18:51:42.525Z,47.98
2022-12-06T18:54:11.430Z,48.06
2022-12-06T18:56:38.444Z,47.76
2022-12-06T18:59:07.397Z,48.44
2022-12-06T19:01:37.203Z,47.92
2022-12-06T19:04:07.048Z,47.93
2022-12-06T19:06:36.758Z,47.86
2022-12-06T19:09:09.707Z,47.66
2022-12-06T19:11:41.918Z,47.78
2022-12-06T19:14:10.227Z,47.31
2022-12-06T19:16:42.093Z,48.45
2022-12-06T19:19:26.816Z,48.20
2022-12-06T19:21:54.790Z,47.70
2022-12-06T19:24:24.378Z,47.35
2022-12-06T19:26:52.557Z,47.84
2022-12-06T19:29:20.029Z,47.96
2022-12-06T19:31:47.216Z,47.79
2022-12-06T19:34:16.693Z,46.98
2022-12-06T19:36:44.204Z,47.64
2022-12-06T19:39:12.061Z,48.26
2022-12-06T19:41:58.175Z,47.96
2022-12-06T19:44:27.023Z,47.59
2022-12-06T19:46:54.077Z,47.82
2022-12-06T19:49:23.729Z,47.52
2022-12-06T19:51:51.758Z,47.46
2022-12-06T19:54:25.022Z,47.95
2022-12-06T19:56:55.405Z,47.99
2022-12-06T19:59:24.807Z,48.13
2022-12-06T20:01:52.936Z,47.74
2022-12-06T20:04:22.859Z,47.95
2022-12-06T20:06:51.411Z,48.19
2022-12-06T20:09:20.471Z,47.80
2022-12-06T20:12:02.801Z,48.08
2022-12-06T20:14:35.356Z,47.51
2022-12-06T20:17:05.328Z,47.37
2022-12-06T20:19:33.702Z,47.45
2022-12-06T20:22:00.798Z,47.32
2022-12-06T20:24:27.843Z,47.59
2022-12-06T20:26:55.371Z,47.50
2022-12-06T20:29:22.552Z,47.06
2022-12-06T20:31:51.926Z,47.24
2022-12-06T20:34:19.653Z,47.86
2022-12-06T20:36:46.955Z,46.96
2022-12-06T20:39:24.425Z,47.43
2022-12-06T20:41:51.533Z,46.92
2022-12-06T20:44:19.116Z,47.07
2022-12-06T20:46:48.412Z,47.01
2022-12-06T20:49:16.357Z,46.98
2022-12-06T20:51:45.800Z,46.33
2022-12-06T20:54:16.649Z,47.43
2022-12-06T20:56:43.705Z,47.34
2022-12-06T20:59:11.610Z,47.42
2022-12-06T21:01:40.709Z,47.31
2022-12-06T21:04:11.781Z,47.13
2022-12-06T21:06:39.500Z,47.50
2022-12-06T21:09:06.521Z,47.22
2022-12-06T21:11:33.536Z,46.75
2022-12-06T21:14:00.555Z,47.25
2022-12-06T21:16:32.404Z,47.19
2022-12-06T21:19:02.245Z,46.62
2022-12-06T21:21:32.557Z,46.57
2022-12-06T21:24:04.505Z,46.64
2022-12-06T21:26:32.326Z,46.06
2022-12-06T21:28:59.676Z,46.23
2022-12-06T21:31:33.075Z,46.96
2022-12-06T21:34:00.459Z,47.15
2022-12-06T21:36:27.579Z,47.49
2022-12-06T21:38:54.674Z,46.81
2022-12-06T21:41:22.290Z,46.77
2022-12-06T21:43:49.922Z,46.87
2022-12-06T21:46:23.320Z,46.55
2022-12-06T21:48:51.988Z,47.32
2022-12-06T21:51:19.808Z,46.68
2022-12-06T21:53:46.987Z,47.18
2022-12-06T21:56:19.599Z,47.23
2022-12-06T21:58:47.632Z,47.20
2022-12-06T22:01:20.208Z,47.04
2022-12-06T22:03:52.080Z,46.86
2022-12-06T22:06:19.316Z,46.92
2022-12-06T22:08:47.343Z,46.62
2022-12-06T22:11:19.834Z,47.02
2022-12-06T22:13:48.250Z,46.79
2022-12-06T22:16:16.592Z,46.64
2022-12-06T22:18:46.002Z,46.46
2022-12-06T22:21:25.474Z,46.88
2022-12-06T22:23:53.380Z,46.59
2022-12-06T22:26:22.458Z,46.41
2022-12-06T22:28:50.098Z,47.14
2022-12-06T22:31:35.583Z,46.72
2022-12-06T22:34:03.138Z,46.88
2022-12-06T22:36:32.021Z,46.51
2022-12-06T22:39:02.111Z,46.38
2022-12-06T22:41:30.065Z,46.20
2022-12-06T22:43:59.782Z,46.48
2022-12-06T22:46:27.904Z,46.77
2022-12-06T22:48:56.044Z,46.57
2022-12-06T22:51:29.179Z,46.28
2022-12-06T22:54:01.985Z,46.82
2022-12-06T22:56:30.533Z,46.14
2022-12-06T22:58:59.736Z,46.52
2022-12-06T23:01:33.295Z,46.61
2022-12-06T23:04:02.847Z,46.49
2022-12-06T23:06:30.034Z,45.99
2022-12-06T23:08:57.144Z,46.84
2022-12-06T23:11:30.122Z,46.97
2022-12-06T23:13:58.368Z,46.66
2022-12-06T23:16:28.319Z,47.60
2022-12-06T23:18:55.659Z,47.68
2022-12-06T23:21:26.058Z,47.73
2022-12-06T23:23:55.458Z,47.57
2022-12-06T23:26:34.198Z,47.71
2022-12-06T23:29:01.327Z,47.91
2022-12-06T23:31:31.500Z,47.93
2022-12-06T23:34:05.387Z,48.73
2022-12-06T23:36:34.512Z,48.50
2022-12-06T23:39:02.087Z,48.29
2022-12-06T23:41:30.946Z,48.35
2022-12-06T23:43:58.968Z,47.82
2022-12-06T23:46:29.295Z,48.25
2022-12-06T23:48:56.833Z,48.28
2022-12-06T23:51:30.982Z,47.80
2022-12-06T23:53:59.334Z,47.71
2022-12-06T23:56:29.679Z,47.67
2022-12-06T23:58:57.658Z,47.78
